Time;durP1;ratioP1;P1;durP2;ratioP2;P2;SDS_P1;SDS_P2;PMS_P1;PMS_P2;Temp;Humidity;BMP_temperature;BMP_pressure;BME280_temperature;BME280_humidity;BME280_pressure;Samples;Min_cycle;Max_cycle;Signal;HPM_P1;HPM_P2
2024/01/17 00:00:13;;;;;;;39.45;12.68;;;-7.40;99.90;;;;;;5028759;28;20159;-61
2024/01/17 00:02:38;;;;;;;39.38;12.20;;;-7.50;99.90;;;;;;5028203;28;20017;-62
2024/01/17 00:05:04;;;;;;;36.53;11.73;;;-7.50;99.90;;;;;;5029639;28;20041;-61
2024/01/17 00:07:30;;;;;;;32.65;11.82;;;-7.50;99.90;;;;;;5029107;28;20556;-61
2024/01/17 00:09:56;;;;;;;36.20;12.43;;;-7.50;99.90;;;;;;5029263;28;20073;-61
2024/01/17 00:12:21;;;;;;;28.08;10.40;;;-7.40;99.90;;;;;;5028493;28;20155;-67
2024/01/17 00:14:47;;;;;;;31.42;10.05;;;-7.50;99.90;;;;;;5029418;28;20474;-61
2024/01/17 00:17:13;;;;;;;28.77;10.02;;;-7.50;99.90;;;;;;5029200;28;20373;-63
2024/01/17 00:19:39;;;;;;;23.95;9.38;;;-7.60;99.90;;;;;;5027984;28;20615;-61
2024/01/17 00:22:05;;;;;;;31.15;11.02;;;-7.60;99.90;;;;;;5029347;28;20107;-62
2024/01/17 00:24:30;;;;;;;32.75;10.93;;;-7.60;99.90;;;;;;5028632;28;20030;-61
2024/01/17 00:26:56;;;;;;;27.63;9.98;;;-7.50;99.90;;;;;;5029224;28;20188;-61
2024/01/17 00:29:22;;;;;;;31.15;10.70;;;-7.50;99.90;;;;;;5028139;28;20034;-67
2024/01/17 00:31:47;;;;;;;37.47;11.30;;;-7.50;99.90;;;;;;5026643;28;20036;-61
2024/01/17 00:34:13;;;;;;;28.10;10.25;;;-7.50;99.90;;;;;;5028980;28;20032;-60
2024/01/17 00:36:38;;;;;;;33.50;11.57;;;-7.50;99.90;;;;;;5027634;28;20045;-62
2024/01/17 00:39:04;;;;;;;32.65;11.25;;;-7.40;99.90;;;;;;5028902;28;20033;-61
2024/01/17 00:41:29;;;;;;;28.80;10.93;;;-7.40;99.90;;;;;;5027266;28;20470;-60
2024/01/17 00:43:55;;;;;;;36.72;11.32;;;-7.50;99.90;;;;;;5028795;28;20033;-61
2024/01/17 00:46:21;;;;;;;33.60;11.75;;;-7.40;99.90;;;;;;5028222;28;20038;-69
2024/01/17 00:48:46;;;;;;;36.78;11.57;;;-7.40;99.90;;;;;;5028493;28;20058;-64
2024/01/17 00:51:24;;;;;;;37.97;11.80;;;-7.60;99.90;;;;;;5028120;28;20025;-63
2024/01/17 00:53:51;;;;;;;34.95;11.30;;;-7.50;99.90;;;;;;5028777;28;20043;-63
2024/01/17 00:56:17;;;;;;;32.17;12.13;;;-7.60;99.90;;;;;;5028892;28;20095;-63
2024/01/17 00:58:42;;;;;;;35.80;11.68;;;-7.60;99.90;;;;;;5028072;28;20028;-61
2024/01/17 01:01:08;;;;;;;37.25;12.07;;;-7.60;99.90;;;;;;5026811;28;20119;-63
2024/01/17 01:03:33;;;;;;;36.63;12.63;;;-7.50;99.90;;;;;;5027394;28;20033;-62
2024/01/17 01:05:59;;;;;;;37.50;11.90;;;-7.40;99.90;;;;;;5028778;28;20440;-61
2024/01/17 01:08:25;;;;;;;32.63;11.38;;;-7.40;99.90;;;;;;5027877;28;20041;-67
2024/01/17 01:10:51;;;;;;;35.45;12.23;;;-7.50;99.90;;;;;;5028027;28;20382;-60
2024/01/17 01:13:16;;;;;;;36.85;12.85;;;-7.40;99.90;;;;;;5028188;28;20589;-61
2024/01/17 01:15:42;;;;;;;39.08;13.25;;;-7.40;99.90;;;;;;5027551;28;20032;-60
2024/01/17 01:18:07;;;;;;;39.78;13.45;;;-7.40;99.90;;;;;;5028185;28;20119;-61
2024/01/17 01:20:33;;;;;;;48.88;14.45;;;-7.40;99.90;;;;;;5027386;28;20042;-61
2024/01/17 01:22:58;;;;;;;47.80;14.43;;;-7.30;99.90;;;;;;5028355;28;20116;-62
2024/01/17 01:25:25;;;;;;;35.15;12.23;;;-7.30;99.90;;;;;;5028223;28;20801;-67
2024/01/17 01:27:51;;;;;;;29.05;11.45;;;-7.20;99.90;;;;;;5027093;28;20033;-61
2024/01/17 01:30:17;;;;;;;34.05;11.43;;;-7.20;99.90;;;;;;5026537;28;20030;-65
2024/01/17 01:32:42;;;;;;;33.72;11.20;;;-7.10;99.90;;;;;;5024240;28;20654;-61
2024/01/17 01:35:08;;;;;;;32.65;12.20;;;-7.20;99.90;;;;;;5027809;28;20033;-63
2024/01/17 01:37:33;;;;;;;36.15;12.57;;;-7.30;99.90;;;;;;5027091;28;20091;-62
2024/01/17 01:39:59;;;;;;;31.50;12.05;;;-7.20;99.90;;;;;;5027908;28;20029;-61
2024/01/17 01:42:25;;;;;;;37.05;12.20;;;-7.30;99.90;;;;;;5027471;28;20052;-66
2024/01/17 01:44:50;;;;;;;40.42;13.05;;;-7.30;99.90;;;;;;5026500;28;20458;-61
2024/01/17 01:47:17;;;;;;;35.17;12.35;;;-7.30;99.90;;;;;;5028076;28;20823;-61
2024/01/17 01:49:42;;;;;;;38.60;12.50;;;-7.30;99.90;;;;;;5025778;28;20472;-60
2024/01/17 01:52:09;;;;;;;38.65;13.13;;;-7.30;99.90;;;;;;5008909;28;20030;-62
2024/01/17 01:54:36;;;;;;;42.28;14.23;;;-7.20;99.90;;;;;;5023772;28;20022;-61
2024/01/17 01:57:02;;;;;;;35.60;13.02;;;-7.10;99.90;;;;;;5028023;28;20052;-62
2024/01/17 01:59:28;;;;;;;44.35;14.55;;;-7.00;99.90;;;;;;5027373;28;20498;-67
2024/01/17 02:01:54;;;;;;;38.85;14.55;;;-7.00;99.90;;;;;;5028086;28;20064;-60
2024/01/17 02:04:21;;;;;;;44.80;14.45;;;-6.90;99.90;;;;;;5027375;28;20090;-61
2024/01/17 02:06:48;;;;;;;43.92;15.70;;;-6.90;99.90;;;;;;5027268;28;20037;-62
2024/01/17 02:09:15;;;;;;;43.63;14.50;;;-6.90;99.90;;;;;;5028015;28;20108;-61
2024/01/17 02:11:41;;;;;;;43.47;15.00;;;-6.80;99.90;;;;;;5027026;28;20040;-60
2024/01/17 02:14:06;;;;;;;44.58;14.77;;;-6.90;99.90;;;;;;5027166;28;20029;-61
2024/01/17 02:16:33;;;;;;;43.00;15.38;;;-6.90;99.90;;;;;;5026645;28;20087;-61
2024/01/17 02:18:59;;;;;;;43.25;15.52;;;-6.80;99.90;;;;;;5026395;28;20118;-63
2024/01/17 02:21:26;;;;;;;44.33;15.05;;;-6.80;99.90;;;;;;5027271;28;20033;-61
2024/01/17 02:23:52;;;;;;;39.92;14.15;;;-6.70;99.90;;;;;;5028540;28;20072;-61
2024/01/17 02:26:19;;;;;;;37.58;14.77;;;-6.70;99.90;;;;;;5031190;28;20037;-61
2024/01/17 02:28:45;;;;;;;40.78;14.27;;;-6.60;99.90;;;;;;5029882;28;20025;-62
2024/01/17 02:31:11;;;;;;;47.17;14.98;;;-6.60;99.90;;;;;;5030616;28;20082;-60
2024/01/17 02:33:37;;;;;;;40.55;14.55;;;-6.60;99.90;;;;;;5030482;28;20116;-61
2024/01/17 02:36:03;;;;;;;43.30;14.73;;;-6.60;99.90;;;;;;5029720;28;20117;-60
2024/01/17 02:38:29;;;;;;;34.92;12.82;;;-6.60;99.90;;;;;;5030952;28;20534;-67
2024/01/17 02:40:54;;;;;;;38.65;14.13;;;-6.50;99.90;;;;;;5030581;28;20070;-63
2024/01/17 02:43:20;;;;;;;40.40;14.02;;;-6.40;99.90;;;;;;5031044;28;20037;-61
2024/01/17 02:45:46;;;;;;;42.95;14.23;;;-6.40;99.90;;;;;;5030013;28;20393;-61
2024/01/17 02:48:11;;;;;;;36.80;13.40;;;-6.30;99.90;;;;;;5030164;28;20045;-62
2024/01/17 02:50:39;;;;;;;40.13;13.60;;;-6.30;99.90;;;;;;5029318;28;20048;-64
2024/01/17 02:53:04;;;;;;;36.17;13.10;;;-6.30;99.90;;;;;;5030967;28;20039;-61
2024/01/17 02:55:30;;;;;;;43.75;14.57;;;-6.40;99.90;;;;;;5028751;28;20033;-68
2024/01/17 02:57:55;;;;;;;42.10;13.13;;;-6.40;99.90;;;;;;5030378;28;20037;-61
2024/01/17 03:00:21;;;;;;;43.97;14.35;;;-6.30;99.90;;;;;;5030668;28;20102;-61
2024/01/17 03:02:47;;;;;;;34.35;12.80;;;-6.30;99.90;;;;;;5029491;28;20367;-60
2024/01/17 03:05:13;;;;;;;32.50;12.75;;;-6.20;99.90;;;;;;5030578;28;20076;-60
2024/01/17 03:07:39;;;;;;;38.35;13.48;;;-6.10;99.90;;;;;;5029227;28;20087;-62
2024/01/17 03:10:05;;;;;;;39.78;14.30;;;-6.10;99.90;;;;;;5030646;28;20678;-61
2024/01/17 03:12:30;;;;;;;39.05;13.38;;;-6.00;99.90;;;;;;5029859;28;20056;-68
2024/01/17 03:14:57;;;;;;;39.80;13.40;;;-6.10;99.90;;;;;;5027933;28;20045;-62
2024/01/17 03:17:22;;;;;;;45.33;13.35;;;-6.10;99.90;;;;;;5029808;28;20398;-61
2024/01/17 03:19:48;;;;;;;35.42;13.15;;;-6.10;99.90;;;;;;5029360;28;20128;-63
2024/01/17 03:22:17;;;;;;;37.20;13.50;;;-6.10;99.90;;;;;;5030311;28;20036;-61
2024/01/17 03:24:45;;;;;;;35.28;12.80;;;-6.10;99.90;;;;;;5029463;28;20105;-61
2024/01/17 03:27:12;;;;;;;37.80;13.45;;;-6.00;99.90;;;;;;5029453;28;20021;-62
2024/01/17 03:29:37;;;;;;;38.05;13.18;;;-6.10;99.90;;;;;;5029780;28;20033;-61
2024/01/17 03:32:03;;;;;;;42.47;13.48;;;-6.10;99.90;;;;;;5029819;28;20033;-60
2024/01/17 03:34:29;;;;;;;37.83;13.43;;;-6.20;99.90;;;;;;5028257;28;20062;-62
2024/01/17 03:36:54;;;;;;;46.58;13.77;;;-6.10;99.90;;;;;;5028450;28;20044;-62
2024/01/17 03:39:21;;;;;;;41.22;13.07;;;-6.00;99.90;;;;;;5022412;28;20113;-62
2024/01/17 03:41:46;;;;;;;36.03;13.18;;;-5.90;99.90;;;;;;5020540;28;20037;-61
2024/01/17 03:44:12;;;;;;;43.35;13.73;;;-5.80;99.90;;;;;;5029822;28;20032;-61
2024/01/17 03:46:38;;;;;;;37.08;13.57;;;-5.70;99.90;;;;;;5029084;28;20462;-61
2024/01/17 03:49:03;;;;;;;40.80;14.02;;;-5.70;99.90;;;;;;5029248;28;20055;-61
2024/01/17 03:51:29;;;;;;;36.30;13.57;;;-5.60;99.90;;;;;;5028848;28;20668;-63
2024/01/17 03:53:54;;;;;;;46.55;14.27;;;-5.50;99.90;;;;;;5029054;28;20053;-62
2024/01/17 03:56:20;;;;;;;36.13;13.52;;;-5.60;99.90;;;;;;5029720;28;20038;-62
2024/01/17 03:58:46;;;;;;;46.33;14.93;;;-5.50;99.90;;;;;;5028843;28;20406;-61
2024/01/17 04:01:13;;;;;;;34.35;12.70;;;-5.40;99.90;;;;;;5029302;28;20092;-61
2024/01/17 04:03:43;;;;;;;42.80;13.13;;;-5.40;99.90;;;;;;5028730;28;20116;-63
2024/01/17 04:06:09;;;;;;;39.30;13.30;;;-5.20;99.90;;;;;;5029189;28;20117;-62
2024/01/17 04:08:35;;;;;;;38.90;14.27;;;-5.10;99.90;;;;;;5028102;28;20167;-68
2024/01/17 04:11:01;;;;;;;42.88;13.80;;;-5.00;99.90;;;;;;5027942;28;20075;-60
2024/01/17 04:13:26;;;;;;;39.78;13.45;;;-4.80;99.90;;;;;;5025446;28;20460;-61
2024/01/17 04:15:52;;;;;;;40.25;14.00;;;-4.70;99.90;;;;;;5036974;28;20096;-62
2024/01/17 04:18:17;;;;;;;37.25;13.70;;;-4.60;99.90;;;;;;5030623;28;20030;-61
2024/01/17 04:20:43;;;;;;;39.70;13.82;;;-4.60;99.90;;;;;;5034041;28;20037;-61
2024/01/17 04:23:09;;;;;;;42.33;14.18;;;-4.70;99.90;;;;;;5045657;28;20473;-62
2024/01/17 04:25:36;;;;;;;32.33;12.77;;;-4.70;99.90;;;;;;5033262;28;20550;-70
2024/01/17 04:28:06;;;;;;;39.50;14.00;;;-4.70;99.90;;;;;;5013768;28;20041;-63
2024/01/17 04:30:31;;;;;;;35.40;13.07;;;-4.80;99.90;;;;;;5031132;28;20519;-63
2024/01/17 04:32:57;;;;;;;40.10;14.30;;;-4.80;99.90;;;;;;5035542;28;20037;-66
2024/01/17 04:35:23;;;;;;;36.55;13.85;;;-4.70;99.90;;;;;;5032608;28;20028;-63
2024/01/17 04:37:48;;;;;;;40.90;13.95;;;-4.70;99.90;;;;;;5019237;28;20095;-63
2024/01/17 04:40:15;;;;;;;51.92;16.40;;;-4.70;99.90;;;;;;5028705;28;20037;-62
2024/01/17 04:42:41;;;;;;;37.30;14.77;;;-4.50;99.90;;;;;;5036758;28;20035;-61
2024/01/17 04:45:07;;;;;;;45.03;15.82;;;-4.30;99.90;;;;;;5036610;28;20033;-63
2024/01/17 04:47:33;;;;;;;41.20;15.57;;;-4.10;99.90;;;;;;5028595;28;20410;-62
2024/01/17 04:49:58;;;;;;;46.90;15.48;;;-4.00;99.90;;;;;;5025169;28;20084;-63
2024/01/17 04:52:24;;;;;;;42.65;15.82;;;-3.90;99.90;;;;;;5029066;28;20132;-64
2024/01/17 04:54:49;;;;;;;43.08;14.98;;;-3.90;99.90;;;;;;5024691;28;20045;-66
2024/01/17 04:57:15;;;;;;;43.83;15.40;;;-3.80;99.90;;;;;;5015100;28;20475;-64
2024/01/17 04:59:42;;;;;;;39.22;14.48;;;-3.70;99.90;;;;;;5027586;28;20470;-63
2024/01/17 05:02:08;;;;;;;43.60;14.93;;;-3.70;99.90;;;;;;5026162;28;20042;-64
2024/01/17 05:04:34;;;;;;;41.42;16.33;;;-3.60;99.90;;;;;;5028821;28;20032;-64
2024/01/17 05:06:59;;;;;;;38.63;15.32;;;-3.60;99.90;;;;;;5027902;28;20068;-64
2024/01/17 05:09:25;;;;;;;42.75;16.60;;;-3.50;99.90;;;;;;5027518;28;20040;-65
2024/01/17 05:11:52;;;;;;;40.70;15.88;;;-3.50;99.90;;;;;;5027255;28;20410;-63
2024/01/17 05:14:17;;;;;;;43.65;16.13;;;-3.60;99.90;;;;;;5028497;28;20040;-64
2024/01/17 05:16:43;;;;;;;38.85;15.15;;;-3.50;99.90;;;;;;5027723;28;20045;-63
2024/01/17 05:19:09;;;;;;;43.25;16.13;;;-3.60;99.90;;;;;;5028509;28;20041;-65
2024/01/17 05:21:34;;;;;;;41.45;16.73;;;-3.50;99.90;;;;;;5027944;28;20029;-63
2024/01/17 05:24:00;;;;;;;42.25;16.15;;;-3.50;99.90;;;;;;5027640;28;20021;-65
2024/01/17 05:26:26;;;;;;;46.90;16.67;;;-3.50;99.90;;;;;;5028471;28;20056;-63
2024/01/17 05:28:52;;;;;;;43.92;16.33;;;-3.50;99.90;;;;;;5027267;28;20026;-65
2024/01/17 05:31:17;;;;;;;42.30;16.05;;;-3.50;99.90;;;;;;5011441;28;20378;-64
2024/01/17 05:33:44;;;;;;;47.50;17.10;;;-3.50;99.90;;;;;;5034524;28;20037;-65
2024/01/17 05:36:10;;;;;;;44.72;16.70;;;-3.50;99.90;;;;;;5027946;28;20474;-65
2024/01/17 05:38:36;;;;;;;49.17;17.73;;;-3.40;99.90;;;;;;5028517;28;20048;-66
2024/01/17 05:41:01;;;;;;;44.88;17.23;;;-3.40;99.90;;;;;;5027100;28;20167;-65
2024/01/17 05:43:27;;;;;;;54.60;18.77;;;-3.50;99.90;;;;;;5027319;28;20725;-65
2024/01/17 05:45:57;;;;;;;50.03;18.85;;;-3.50;99.90;;;;;;5026096;28;20104;-63
2024/01/17 05:48:26;;;;;;;51.83;18.65;;;-3.40;99.90;;;;;;5028196;28;20037;-62
2024/01/17 05:50:51;;;;;;;45.47;17.40;;;-3.30;99.90;;;;;;5027203;28;21881;-63
2024/01/17 05:53:17;;;;;;;57.28;19.63;;;-3.30;99.90;;;;;;5022276;28;20069;-62
2024/01/17 05:55:43;;;;;;;48.80;19.05;;;-3.30;99.90;;;;;;5023237;28;20064;-64
2024/01/17 05:58:09;;;;;;;45.90;17.90;;;-3.20;99.90;;;;;;5021975;28;20033;-65
2024/01/17 06:00:35;;;;;;;52.30;17.80;;;-3.20;99.90;;;;;;5028250;28;20045;-65
2024/01/17 06:03:01;;;;;;;45.63;18.73;;;-3.10;99.90;;;;;;5023666;28;20018;-64
2024/01/17 06:05:27;;;;;;;57.03;18.42;;;-3.10;99.90;;;;;;5029195;28;20025;-66
2024/01/17 06:07:52;;;;;;;53.15;19.42;;;-3.10;99.90;;;;;;5026327;28;20069;-65
2024/01/17 06:10:18;;;;;;;58.42;20.10;;;-3.00;99.90;;;;;;5031798;28;20132;-64
2024/01/17 06:12:44;;;;;;;50.08;18.58;;;-3.00;99.90;;;;;;5026107;28;20064;-64
2024/01/17 06:15:11;;;;;;;51.20;19.33;;;-2.90;99.90;;;;;;5028493;28;20057;-64
2024/01/17 06:17:37;;;;;;;60.78;21.50;;;-2.90;99.90;;;;;;5027934;28;20041;-65
2024/01/17 06:20:03;;;;;;;52.40;19.20;;;-2.90;99.90;;;;;;5022613;28;20042;-65
2024/01/17 06:22:29;;;;;;;51.92;19.88;;;-2.90;99.90;;;;;;5025368;28;20087;-65
2024/01/17 06:24:55;;;;;;;53.47;20.30;;;-2.80;99.90;;;;;;5028477;28;20038;-66
2024/01/17 06:27:22;;;;;;;54.33;20.60;;;-2.80;99.90;;;;;;5026654;28;20359;-64
2024/01/17 06:29:47;;;;;;;53.38;20.25;;;-2.80;99.90;;;;;;5024703;28;20030;-64
2024/01/17 06:32:13;;;;;;;43.20;18.48;;;-2.80;99.90;;;;;;5028605;28;20030;-65
2024/01/17 06:34:39;;;;;;;58.95;21.00;;;-2.70;99.90;;;;;;5021793;28;20025;-68
2024/01/17 06:37:05;;;;;;;55.95;21.02;;;-2.60;99.90;;;;;;5025744;28;20038;-67
2024/01/17 06:39:34;;;;;;;58.92;21.05;;;-2.50;99.90;;;;;;5027664;28;20328;-62
2024/01/17 06:42:00;;;;;;;51.70;21.08;;;-2.40;99.90;;;;;;5028991;28;20074;-67
2024/01/17 06:44:27;;;;;;;56.85;21.33;;;-2.50;99.90;;;;;;5028827;28;20033;-63
2024/01/17 06:46:53;;;;;;;62.33;22.13;;;-2.40;99.90;;;;;;5022333;28;20452;-63
2024/01/17 06:49:18;;;;;;;52.60;20.85;;;-2.40;99.90;;;;;;5030978;28;20096;-66
2024/01/17 06:51:45;;;;;;;57.85;22.77;;;-2.30;99.90;;;;;;5026914;28;20390;-70
2024/01/17 06:54:11;;;;;;;62.38;24.15;;;-2.30;99.90;;;;;;5028277;28;20037;-65
2024/01/17 06:56:37;;;;;;;58.75;23.00;;;-2.20;99.90;;;;;;5025170;28;20500;-65
2024/01/17 06:59:04;;;;;;;56.42;22.27;;;-2.20;99.90;;;;;;5029036;28;20086;-62
2024/01/17 07:01:29;;;;;;;61.08;21.80;;;-2.10;99.90;;;;;;5023840;28;20422;-67
2024/01/17 07:03:55;;;;;;;66.55;22.85;;;-2.10;99.90;;;;;;5027620;28;20029;-63
2024/01/17 07:06:21;;;;;;;61.40;22.98;;;-2.10;99.90;;;;;;5025946;28;20044;-63
2024/01/17 07:08:47;;;;;;;56.78;21.95;;;-1.90;99.90;;;;;;5020101;28;20494;-64
2024/01/17 07:11:13;;;;;;;39.75;15.65;;;-1.70;99.90;;;;;;5026930;28;20026;-63
2024/01/17 07:13:39;;;;;;;71.22;28.85;;;-1.30;99.90;;;;;;5027237;28;20717;-64
2024/01/17 07:16:07;;;;;;;60.53;24.45;;;-1.20;99.90;;;;;;5023291;28;20220;-65
2024/01/17 07:18:34;;;;;;;38.78;14.02;;;-1.10;99.90;;;;;;5025433;28;20109;-63
2024/01/17 07:21:06;;;;;;;68.35;21.48;;;-0.90;99.90;;;;;;5023351;28;20061;-65
2024/01/17 07:23:32;;;;;;;142.38;47.47;;;-0.50;99.90;;;;;;5025788;28;20129;-64
2024/01/17 07:25:58;;;;;;;93.65;33.30;;;-0.20;99.90;;;;;;5026037;28;20477;-65
2024/01/17 07:28:24;;;;;;;57.50;23.85;;;0.10;99.90;;;;;;5025929;28;20070;-67
2024/01/17 07:30:50;;;;;;;43.13;16.65;;;0.30;99.90;;;;;;5027014;28;20038;-68
2024/01/17 07:33:15;;;;;;;42.75;15.82;;;0.50;99.90;;;;;;5018262;28;20382;-65
2024/01/17 07:35:41;;;;;;;42.83;17.60;;;0.60;99.90;;;;;;5021499;28;20032;-66
2024/01/17 07:38:07;;;;;;;51.13;19.38;;;0.50;99.90;;;;;;5025063;28;20073;-66
2024/01/17 07:40:33;;;;;;;39.60;14.27;;;0.50;99.90;;;;;;5027233;28;20037;-64
2024/01/17 07:42:59;;;;;;;27.90;12.02;;;0.50;99.90;;;;;;5027355;28;20041;-67
2024/01/17 07:45:25;;;;;;;31.50;12.10;;;0.60;99.90;;;;;;5026983;28;20029;-68
2024/01/17 07:47:50;;;;;;;30.55;12.60;;;0.70;99.90;;;;;;5004965;28;20107;-67
2024/01/17 07:50:16;;;;;;;30.35;12.18;;;0.80;99.90;;;;;;5027253;28;20850;-67
2024/01/17 07:52:41;;;;;;;27.05;11.55;;;0.90;99.90;;;;;;5027690;28;20482;-68
2024/01/17 07:55:08;;;;;;;26.33;10.57;;;1.00;99.90;;;;;;5026789;28;20025;-69
2024/01/17 07:57:33;;;;;;;49.78;20.13;;;1.00;99.90;;;;;;5026647;28;20092;-67
2024/01/17 07:59:59;;;;;;;49.78;22.65;;;1.00;99.90;;;;;;5026411;28;20104;-69
2024/01/17 08:02:25;;;;;;;35.08;13.75;;;1.20;99.90;;;;;;5026219;28;20433;-70
2024/01/17 08:04:52;;;;;;;29.50;12.18;;;1.30;99.90;;;;;;5028557;28;20057;-72
2024/01/17 08:07:24;;;;;;;30.50;12.10;;;1.40;99.90;;;;;;5023831;28;20029;-70
2024/01/17 08:09:53;;;;;;;32.45;12.70;;;1.50;99.90;;;;;;5027657;28;20037;-70
2024/01/17 08:12:19;;;;;;;33.58;13.68;;;1.50;99.90;;;;;;5025112;28;20062;-70
2024/01/17 08:14:45;;;;;;;33.33;12.90;;;1.50;99.90;;;;;;5028018;28;20068;-74
2024/01/17 08:17:11;;;;;;;27.13;12.15;;;1.50;99.90;;;;;;5025280;28;20558;-69
2024/01/17 08:19:37;;;;;;;32.55;12.82;;;1.60;99.90;;;;;;5027786;28;20517;-70
2024/01/17 08:22:04;;;;;;;27.42;11.02;;;1.60;99.90;;;;;;5023559;28;20018;-70
2024/01/17 08:24:30;;;;;;;24.45;10.23;;;1.70;99.90;;;;;;5026446;28;20087;-69
2024/01/17 08:26:56;;;;;;;27.70;11.32;;;1.90;99.90;;;;;;5024484;28;20037;-69
2024/01/17 08:29:22;;;;;;;29.63;11.73;;;1.90;99.90;;;;;;5026193;28;20112;-68
2024/01/17 08:31:48;;;;;;;23.42;10.20;;;2.00;99.90;;;;;;5021419;28;20133;-73
2024/01/17 08:34:14;;;;;;;24.25;9.52;;;2.10;99.90;;;;;;5016676;28;20029;-67
2024/01/17 08:36:40;;;;;;;20.70;8.57;;;2.20;99.90;;;;;;5023473;28;20359;-68
2024/01/17 08:39:06;;;;;;;18.17;8.07;;;2.40;99.90;;;;;;5027697;28;20105;-68
2024/01/17 08:41:33;;;;;;;18.90;7.97;;;2.50;99.90;;;;;;5022798;28;20060;-71
2024/01/17 08:44:02;;;;;;;19.48;8.30;;;2.50;99.90;;;;;;5025228;28;20025;-71
2024/01/17 08:46:28;;;;;;;18.27;7.20;;;2.50;99.90;;;;;;5018513;28;20026;-69
2024/01/17 08:48:54;;;;;;;21.02;8.07;;;2.60;99.90;;;;;;5023277;28;20564;-68
2024/01/17 08:51:24;;;;;;;17.80;7.55;;;2.70;99.90;;;;;;5025413;28;20044;-69
2024/01/17 08:53:50;;;;;;;11.75;5.50;;;2.60;99.90;;;;;;5021957;28;20025;-73
2024/01/17 08:56:16;;;;;;;16.33;7.40;;;2.70;99.90;;;;;;5022399;28;20393;-68
2024/01/17 08:58:44;;;;;;;13.38;5.60;;;2.80;99.90;;;;;;5026825;28;20037;-66
2024/01/17 09:01:10;;;;;;;17.05;6.40;;;2.80;99.90;;;;;;5018644;28;20033;-71
2024/01/17 09:03:36;;;;;;;13.23;5.07;;;2.80;99.90;;;;;;5024762;28;20025;-68
2024/01/17 09:06:02;;;;;;;12.32;5.30;;;2.90;99.90;;;;;;5019844;28;20364;-69
2024/01/17 09:08:28;;;;;;;13.70;5.35;;;2.90;99.90;;;;;;5024581;28;20079;-69
2024/01/17 09:10:54;;;;;;;13.32;5.68;;;2.90;99.90;;;;;;5027355;28;20080;-69
2024/01/17 09:13:20;;;;;;;12.60;5.72;;;2.90;99.90;;;;;;5019680;28;20025;-72
2024/01/17 09:15:45;;;;;;;10.50;4.85;;;3.00;99.90;;;;;;5027120;28;20091;-70
2024/01/17 09:18:11;;;;;;;11.13;4.50;;;3.00;99.90;;;;;;5022877;28;20037;-68
2024/01/17 09:20:37;;;;;;;10.02;4.05;;;3.00;99.90;;;;;;5030763;28;20063;-67
2024/01/17 09:23:03;;;;;;;8.75;3.78;;;3.10;99.90;;;;;;5022598;28;20454;-70
2024/01/17 09:25:29;;;;;;;9.63;4.22;;;3.40;99.90;;;;;;5025252;28;20026;-77
2024/01/17 09:27:55;;;;;;;11.68;3.92;;;3.40;99.90;;;;;;5027229;28;20041;-74
2024/01/17 09:30:20;;;;;;;10.30;4.63;;;3.40;99.90;;;;;;5028688;28;20037;-67
2024/01/17 09:32:47;;;;;;;8.73;3.90;;;3.30;99.90;;;;;;5027118;28;20036;-68
2024/01/17 09:35:14;;;;;;;9.88;3.90;;;3.30;99.90;;;;;;5027530;28;20064;-70
2024/01/17 09:37:40;;;;;;;8.75;3.78;;;3.40;99.90;;;;;;5027437;28;20648;-70
2024/01/17 09:40:06;;;;;;;10.45;4.18;;;3.40;99.90;;;;;;5027907;28;20029;-69
2024/01/17 09:42:33;;;;;;;8.85;3.88;;;3.40;99.90;;;;;;5027388;28;20053;-69
2024/01/17 09:45:02;;;;;;;8.23;3.95;;;3.40;99.90;;;;;;5027299;28;20029;-70
2024/01/17 09:47:31;;;;;;;6.15;3.13;;;3.40;99.90;;;;;;5027525;28;20035;-80
2024/01/17 09:49:56;;;;;;;8.07;3.30;;;3.50;99.90;;;;;;5026710;28;20627;-70
2024/01/17 09:52:23;;;;;;;8.15;3.72;;;3.50;99.90;;;;;;5028394;28;20033;-71
2024/01/17 09:54:51;;;;;;;6.18;2.80;;;3.70;99.90;;;;;;5029673;28;20124;-71
2024/01/17 09:57:25;;;;;;;6.80;3.08;;;3.70;99.90;;;;;;5027750;28;20045;-72
2024/01/17 09:59:57;;;;;;;7.32;3.50;;;3.70;99.90;;;;;;5028217;28;20432;-79
2024/01/17 10:02:24;;;;;;;8.48;3.80;;;3.80;99.90;;;;;;5026727;28;20026;-70
2024/01/17 10:04:50;;;;;;;7.88;3.83;;;3.70;99.90;;;;;;5027421;28;20541;-76
2024/01/17 10:07:19;;;;;;;7.88;3.42;;;3.70;99.90;;;;;;5027914;28;20033;-70
2024/01/17 10:09:47;;;;;;;7.70;2.95;;;3.70;99.90;;;;;;5027997;28;20156;-70
2024/01/17 10:12:13;;;;;;;7.15;3.30;;;3.80;99.90;;;;;;5028030;28;20041;-71
2024/01/17 10:14:40;;;;;;;6.65;2.60;;;3.80;99.90;;;;;;5028300;28;20030;-70
2024/01/17 10:17:06;;;;;;;5.13;2.42;;;3.80;99.90;;;;;;5028925;28;20043;-69
2024/01/17 10:19:33;;;;;;;8.13;2.80;;;3.90;99.90;;;;;;5027985;28;20033;-70
2024/01/17 10:22:02;;;;;;;8.85;3.78;;;3.90;99.90;;;;;;5027055;28;20869;-67
2024/01/17 10:24:32;;;;;;;7.15;3.55;;;3.90;99.90;;;;;;5027568;28;20497;-69
2024/01/17 10:27:02;;;;;;;31.67;14.27;;;3.80;99.90;;;;;;5023746;28;20129;-70
2024/01/17 10:29:29;;;;;;;32.22;14.23;;;3.70;99.90;;;;;;5010041;28;20037;-69
2024/01/17 10:32:01;;;;;;;25.70;13.63;;;3.50;99.90;;;;;;5027205;28;20498;-76
2024/01/17 10:34:30;;;;;;;25.95;13.30;;;3.40;99.90;;;;;;5027728;28;20088;-68
2024/01/17 10:36:56;;;;;;;28.15;13.93;;;3.30;99.90;;;;;;5027525;28;20523;-70
2024/01/17 10:39:23;;;;;;;80.55;34.05;;;3.20;99.90;;;;;;5027387;28;20044;-71
2024/01/17 10:41:51;;;;;;;54.45;21.15;;;3.10;99.90;;;;;;5028066;28;20057;-71
2024/01/17 10:44:20;;;;;;;46.22;20.48;;;3.10;99.90;;;;;;5027496;28;20484;-64
2024/01/17 10:46:48;;;;;;;39.70;20.17;;;3.10;99.90;;;;;;5031061;28;20551;-66
2024/01/17 10:49:13;;;;;;;17.92;7.45;;;3.20;99.90;;;;;;5032703;28;20366;-67
2024/01/17 10:51:49;;;;;;;19.77;8.60;;;3.30;99.90;;;;;;5035782;28;20042;-63
2024/01/17 10:54:20;;;;;;;36.05;17.50;;;3.50;99.90;;;;;;5034438;28;20553;-68
2024/01/17 10:56:52;;;;;;;34.60;18.13;;;3.40;99.90;;;;;;5031079;28;20033;-68
2024/01/17 10:59:20;;;;;;;35.00;16.80;;;3.40;99.90;;;;;;5038371;28;20470;-66
2024/01/17 11:01:49;;;;;;;28.38;16.33;;;3.40;99.90;;;;;;5022761;28;20390;-65
2024/01/17 11:04:20;;;;;;;42.08;22.50;;;3.40;99.90;;;;;;5030565;28;20064;-66
2024/01/17 11:06:48;;;;;;;17.33;10.27;;;3.30;99.90;;;;;;5030495;28;20060;-64
2024/01/17 11:09:15;;;;;;;21.13;11.18;;;3.30;99.90;;;;;;5030161;28;20124;-69
2024/01/17 11:11:42;;;;;;;13.20;6.40;;;3.30;99.90;;;;;;5029275;28;20032;-68
2024/01/17 11:14:08;;;;;;;13.27;6.18;;;3.30;99.90;;;;;;5030157;28;20058;-70
2024/01/17 11:16:36;;;;;;;11.13;4.55;;;3.30;99.90;;;;;;5027779;28;20490;-68
2024/01/17 11:19:04;;;;;;;10.20;4.70;;;3.30;99.90;;;;;;5022131;28;20636;-70
2024/01/17 11:21:32;;;;;;;15.57;5.03;;;3.40;99.90;;;;;;5026231;28;20021;-70
2024/01/17 11:24:28;;;;;;;12.00;5.65;;;3.40;99.90;;;;;;5024067;28;20127;-76
2024/01/17 11:27:03;;;;;;;11.02;5.07;;;3.40;99.90;;;;;;5028931;28;20029;-76
2024/01/17 11:29:41;;;;;;;8.20;3.83;;;3.40;99.90;;;;;;5026871;28;20393;-72
2024/01/17 11:32:40;;;;;;;7.63;2.72;;;3.50;99.90;;;;;;5028466;28;20049;-69
2024/01/17 11:35:06;;;;;;;10.15;5.05;;;3.50;99.90;;;;;;5026090;28;20545;-67
2024/01/17 11:37:38;;;;;;;6.82;2.97;;;3.60;99.90;;;;;;5026381;28;20135;-66
2024/01/17 11:40:04;;;;;;;7.40;3.38;;;3.70;99.90;;;;;;5010157;28;20038;-67
2024/01/17 11:42:31;;;;;;;5.20;2.58;;;3.80;99.90;;;;;;5018958;28;20033;-66
2024/01/17 11:44:57;;;;;;;5.18;2.40;;;3.90;99.90;;;;;;5029981;28;20041;-72
2024/01/17 11:47:22;;;;;;;6.28;2.85;;;4.00;99.90;;;;;;5029620;28;20091;-67
2024/01/17 11:49:49;;;;;;;6.53;3.38;;;4.10;99.90;;;;;;5029624;28;20124;-67
2024/01/17 11:52:26;;;;;;;5.78;2.70;;;4.00;99.90;;;;;;5011922;28;20041;-68
2024/01/17 11:54:53;;;;;;;6.70;3.08;;;4.10;99.90;;;;;;5030325;28;20036;-67
2024/01/17 11:57:19;;;;;;;5.78;2.70;;;4.10;99.90;;;;;;5028159;28;20221;-68
2024/01/17 11:59:49;;;;;;;4.38;2.47;;;4.00;99.90;;;;;;5029880;28;20466;-70
2024/01/17 12:02:37;;;;;;;5.70;2.78;;;4.00;99.90;;;;;;5029372;28;20148;-65
2024/01/17 12:05:05;;;;;;;6.15;3.00;;;4.20;99.90;;;;;;5029076;28;20112;-67
2024/01/17 12:07:35;;;;;;;8.80;4.40;;;4.20;99.90;;;;;;5029569;28;20029;-68
2024/01/17 12:10:08;;;;;;;5.45;2.88;;;4.20;99.90;;;;;;5020390;28;20033;-69
2024/01/17 12:12:34;;;;;;;6.65;3.10;;;4.20;99.90;;;;;;5030131;28;20068;-66
2024/01/17 12:15:00;;;;;;;7.65;3.40;;;4.20;99.90;;;;;;5029478;28;20061;-73
2024/01/17 12:17:25;;;;;;;9.15;3.20;;;4.20;99.90;;;;;;5037137;28;20087;-68
2024/01/17 12:19:52;;;;;;;7.25;3.63;;;4.20;99.90;;;;;;5029975;28;20038;-68
2024/01/17 12:22:17;;;;;;;7.28;3.83;;;4.20;99.90;;;;;;5029177;28;20835;-66
2024/01/17 12:24:44;;;;;;;8.68;3.90;;;4.30;99.90;;;;;;5029541;28;20029;-67
2024/01/17 12:27:12;;;;;;;10.00;4.90;;;4.40;99.90;;;;;;5027143;28;20464;-67
2024/01/17 12:29:38;;;;;;;8.55;4.13;;;4.40;99.90;;;;;;5029602;28;20432;-69
2024/01/17 12:32:04;;;;;;;8.50;4.18;;;4.40;99.90;;;;;;5028868;28;20033;-73